Time;durP1;ratioP1;P1;durP2;ratioP2;P2;SDS_P1;SDS_P2;PMS_P1;PMS_P2;Temp;Humidity;BMP_temperature;BMP_pressure;BME280_temperature;BME280_humidity;BME280_pressure;Samples;Min_cycle;Max_cycle;Signal;HPM_P1;HPM_P2
2022/03/07 00:02:44;;;;;;;0.00;0.00;;;;;;;2.34;89.93;98819.84;4932269;23;20060;-80
2022/03/07 00:05:09;;;;;;;0.00;0.00;;;;;;;2.34;89.97;98827.78;4850103;29;20414;-79
2022/03/07 00:07:35;;;;;;;0.00;0.00;;;;;;;2.28;89.44;98820.78;4864540;29;20029;-79
2022/03/07 00:10:00;;;;;;;0.03;0.03;;;;;;;2.29;90.25;98813.66;4864315;29;20033;-79
2022/03/07 00:12:34;;;;;;;0.00;0.00;;;;;;;2.33;90.27;98810.34;4885144;29;20024;-81
2022/03/07 00:21:47;;;;;;;0.00;0.00;;;;;;;2.25;90.03;98805.41;4900416;29;20164;-80
2022/03/07 00:24:13;;;;;;;0.00;0.00;;;;;;;2.23;90.37;98804.81;4882512;29;20068;-80
2022/03/07 00:26:38;;;;;;;0.00;0.00;;;;;;;2.21;90.64;98809.50;4883160;29;20033;-79
2022/03/07 00:29:03;;;;;;;0.08;0.08;;;;;;;2.19;90.68;98819.50;4883765;29;20645;-79
2022/03/07 00:31:46;;;;;;;0.00;0.00;;;;;;;2.18;90.71;98823.16;4883169;29;20049;-80
2022/03/07 00:37:40;;;;;;;0.00;0.00;;;;;;;2.17;91.33;98819.75;4903559;29;20131;-81
2022/03/07 00:40:20;;;;;;;0.22;0.22;;;;;;;2.15;91.45;98819.16;4884741;29;20159;-81
2022/03/07 00:42:46;;;;;;;0.00;0.00;;;;;;;2.18;91.53;98821.31;4900017;29;20036;-81
2022/03/07 00:57:20;;;;;;;0.00;0.00;;;;;;;2.40;90.68;98815.50;4918721;29;20108;-79
2022/03/07 00:59:46;;;;;;;0.00;0.00;;;;;;;2.44;90.44;98810.59;4902627;29;20443;-79
2022/03/07 01:02:12;;;;;;;0.00;0.00;;;;;;;2.39;90.68;98814.72;4872380;29;20044;-75
2022/03/07 01:04:37;;;;;;;1.65;1.55;;;;;;;2.35;90.47;98808.28;4886157;29;20029;-79
2022/03/07 01:07:03;;;;;;;0.00;0.00;;;;;;;2.38;90.15;98815.75;4865464;29;20043;-77
2022/03/07 01:09:29;;;;;;;0.00;0.00;;;;;;;2.29;90.61;98801.28;4864747;29;20024;-79
2022/03/07 01:11:55;;;;;;;0.00;0.00;;;;;;;2.30;90.86;98804.72;4863929;29;20398;-78
2022/03/07 01:14:20;;;;;;;0.00;0.00;;;;;;;2.29;90.82;98806.56;4863480;29;20386;-80
2022/03/07 01:16:46;;;;;;;0.00;0.00;;;;;;;2.23;90.98;98803.00;4863838;29;20120;-78
2022/03/07 01:19:12;;;;;;;0.00;0.00;;;;;;;2.18;90.47;98808.13;4880251;29;20036;-75
2022/03/07 01:21:39;;;;;;;0.13;0.13;;;;;;;2.12;91.04;98803.75;4863714;29;20128;-79
2022/03/07 01:24:04;;;;;;;0.90;0.90;;;;;;;2.13;91.71;98804.59;4863463;29;20025;-78
2022/03/07 01:26:30;;;;;;;0.00;0.00;;;;;;;2.18;91.65;98816.03;4881194;29;20041;-76
2022/03/07 01:28:56;;;;;;;0.00;0.00;;;;;;;2.17;91.32;98814.47;4886015;29;20425;-77
2022/03/07 01:31:21;;;;;;;0.00;0.00;;;;;;;2.21;91.65;98812.97;4863598;29;20478;-77
2022/03/07 01:33:47;;;;;;;0.00;0.00;;;;;;;2.23;90.95;98812.75;4865263;29;20525;-77
2022/03/07 01:36:12;;;;;;;0.00;0.00;;;;;;;2.26;91.80;98812.28;4879760;29;20089;-79
2022/03/07 01:38:37;;;;;;;0.00;0.00;;;;;;;2.37;90.86;98816.78;4878718;29;20040;-79
2022/03/07 01:41:03;;;;;;;0.00;0.00;;;;;;;2.37;90.62;98819.41;4880135;29;20053;-79
2022/03/07 01:43:29;;;;;;;0.00;0.00;;;;;;;2.37;90.65;98821.28;4891764;29;20036;-81
2022/03/07 01:45:54;;;;;;;0.00;0.00;;;;;;;2.40;90.79;98820.78;4881863;29;20041;-78
2022/03/07 01:48:20;;;;;;;0.00;0.00;;;;;;;2.47;90.61;98816.22;4899750;29;20059;-78
2022/03/07 01:50:45;;;;;;;0.00;0.00;;;;;;;2.47;90.68;98813.56;4886419;29;20044;-77
2022/03/07 01:53:11;;;;;;;0.00;0.00;;;;;;;2.45;89.64;98807.72;4882474;29;20116;-79
2022/03/07 01:55:37;;;;;;;0.00;0.00;;;;;;;2.40;90.30;98802.31;4883765;29;20041;-77
2022/03/07 01:58:03;;;;;;;0.13;0.13;;;;;;;2.47;90.13;98810.16;4899167;29;20053;-78
2022/03/07 02:00:29;;;;;;;0.00;0.00;;;;;;;2.45;89.63;98815.63;4882941;29;20037;-77
2022/03/07 02:02:55;;;;;;;0.00;0.00;;;;;;;2.46;90.12;98813.81;4896965;29;20037;-77
2022/03/07 02:05:21;;;;;;;0.00;0.00;;;;;;;2.41;89.91;98809.22;4865226;29;20096;-79
2022/03/07 02:07:46;;;;;;;0.00;0.00;;;;;;;2.40;89.05;98805.78;4880550;29;20037;-79
2022/03/07 02:10:12;;;;;;;0.10;0.10;;;;;;;2.40;90.03;98810.25;4878095;29;20040;-79
2022/03/07 02:12:38;;;;;;;0.00;0.00;;;;;;;2.35;90.29;98818.84;4864351;29;20033;-80
2022/03/07 02:15:07;;;;;;;0.00;0.00;;;;;;;2.37;90.06;98818.63;4863747;29;20033;-80
2022/03/07 02:17:33;;;;;;;0.00;0.00;;;;;;;2.40;89.80;98826.06;4848072;29;20034;-80
2022/03/07 02:19:59;;;;;;;0.00;0.00;;;;;;;2.43;89.58;98825.63;4875934;29;20131;-80
2022/03/07 02:22:24;;;;;;;0.00;0.00;;;;;;;2.34;89.40;98821.72;4879988;29;20071;-80
2022/03/07 02:24:50;;;;;;;0.00;0.00;;;;;;;2.41;89.83;98819.78;4864481;29;20044;-82
2022/03/07 02:27:18;;;;;;;0.00;0.00;;;;;;;2.49;89.11;98827.34;4863181;29;20497;-80
2022/03/07 02:29:45;;;;;;;1.08;1.08;;;;;;;2.47;89.25;98818.06;4898385;29;20044;-80
2022/03/07 02:32:11;;;;;;;0.00;0.00;;;;;;;2.45;89.28;98828.03;4882052;29;20076;-78
2022/03/07 02:34:37;;;;;;;0.00;0.00;;;;;;;2.38;89.49;98828.94;4896881;29;20035;-80
2022/03/07 02:37:03;;;;;;;0.00;0.00;;;;;;;2.46;89.65;98833.09;4878508;29;20025;-79
2022/03/07 02:39:29;;;;;;;0.00;0.00;;;;;;;2.50;89.38;98839.53;4880143;29;20044;-79
2022/03/07 02:41:55;;;;;;;0.00;0.00;;;;;;;2.48;89.25;98840.75;4883962;29;20041;-80
2022/03/07 02:44:21;;;;;;;0.10;0.10;;;;;;;2.47;89.24;98837.34;4855216;29;20489;-79
2022/03/07 02:46:46;;;;;;;0.00;0.00;;;;;;;2.55;89.26;98839.66;4876634;29;20040;-79
2022/03/07 02:49:12;;;;;;;0.00;0.00;;;;;;;2.46;89.07;98841.00;4884212;29;20040;-80
2022/03/07 02:51:37;;;;;;;0.00;0.00;;;;;;;2.48;89.75;98838.13;4865256;29;20375;-79
2022/03/07 02:54:04;;;;;;;0.00;0.00;;;;;;;2.47;89.55;98836.53;4865875;29;20116;-79
2022/03/07 02:56:29;;;;;;;0.03;0.03;;;;;;;2.44;89.29;98834.34;4881247;29;20053;-79
2022/03/07 02:58:54;;;;;;;0.17;0.17;;;;;;;2.47;89.23;98836.53;4892605;29;20060;-79
2022/03/07 03:01:20;;;;;;;0.00;0.00;;;;;;;2.53;89.24;98830.34;4884759;29;20127;-79
2022/03/07 03:03:46;;;;;;;0.00;0.00;;;;;;;2.53;88.88;98825.06;4901767;29;20576;-79
2022/03/07 03:06:11;;;;;;;0.00;0.00;;;;;;;2.55;89.10;98833.53;4884249;29;20032;-78
2022/03/07 03:08:37;;;;;;;0.05;0.05;;;;;;;2.52;89.19;98832.16;4880877;29;20037;-79
2022/03/07 03:11:03;;;;;;;0.00;0.00;;;;;;;2.44;88.54;98821.97;4880058;29;20068;-79
2022/03/07 03:13:28;;;;;;;0.00;0.00;;;;;;;2.53;88.84;98835.63;4878934;29;20416;-78
2022/03/07 03:15:55;;;;;;;0.00;0.00;;;;;;;2.56;88.95;98827.22;4866732;29;20397;-78
2022/03/07 03:18:21;;;;;;;0.00;0.00;;;;;;;2.48;88.18;98827.56;4882634;29;20033;-78
2022/03/07 03:20:51;;;;;;;0.05;0.05;;;;;;;2.48;88.64;98831.03;4865964;29;20259;-79
2022/03/07 03:23:18;;;;;;;0.00;0.00;;;;;;;2.52;89.10;98828.72;4864840;29;20133;-78
2022/03/07 03:25:44;;;;;;;0.00;0.00;;;;;;;2.50;88.99;98822.88;4882734;29;20036;-79
2022/03/07 03:28:09;;;;;;;0.00;0.00;;;;;;;2.49;88.69;98831.81;4878153;29;20047;-79
2022/03/07 03:30:35;;;;;;;0.00;0.00;;;;;;;2.51;89.00;98825.28;4864960;29;20032;-79
2022/03/07 03:33:19;;;;;;;0.00;0.00;;;;;;;2.54;88.83;98822.19;4925227;23;20044;-81
2022/03/07 03:35:44;;;;;;;0.00;0.00;;;;;;;2.50;88.38;98831.59;4885740;29;20056;-78
2022/03/07 03:38:10;;;;;;;0.00;0.00;;;;;;;2.52;88.87;98834.81;4898959;29;20389;-79
2022/03/07 03:40:37;;;;;;;0.00;0.00;;;;;;;2.52;89.11;98828.72;4898430;29;20074;-79
2022/03/07 03:43:14;;;;;;;0.80;0.80;;;;;;;2.60;89.16;98827.59;4883544;29;20474;-81
2022/03/07 03:49:30;;;;;;;0.00;0.00;;;;;;;2.64;89.04;98832.19;4887953;29;20127;-82
2022/03/07 03:51:56;;;;;;;0.00;0.00;;;;;;;2.65;88.88;98832.97;4872802;29;20045;-79
2022/03/07 03:54:22;;;;;;;0.00;0.00;;;;;;;2.69;nan;98828.84;4863784;29;20032;-79
2022/03/07 03:56:49;;;;;;;0.00;0.00;;;;;;;2.66;88.11;98827.47;4863370;29;20037;-80
2022/03/07 03:59:14;;;;;;;0.00;0.00;;;;;;;2.62;88.30;98826.31;4876771;29;20048;-78
2022/03/07 04:01:40;;;;;;;0.00;0.00;;;;;;;2.63;88.29;98830.56;4879805;29;20531;-79
2022/03/07 04:04:05;;;;;;;0.75;0.75;;;;;;;2.68;88.73;98827.25;4880076;29;20108;-79
2022/03/07 04:06:52;;;;;;;0.00;0.00;;;;;;;2.68;88.05;98828.03;4891499;29;20037;-81
2022/03/07 04:09:26;;;;;;;0.00;0.00;;;;;;;2.66;88.61;98819.56;4852099;29;20116;-80
2022/03/07 04:11:54;;;;;;;0.00;0.00;;;;;;;2.66;88.80;98826.66;4861064;29;20029;-79
2022/03/07 04:14:19;;;;;;;0.65;0.60;;;;;;;2.75;87.66;98829.75;4860775;29;20037;-79
2022/03/07 04:16:45;;;;;;;0.00;0.00;;;;;;;2.68;88.61;98830.69;4876434;29;20031;-79
2022/03/07 04:19:12;;;;;;;0.00;0.00;;;;;;;2.72;88.21;98831.03;4878736;29;20037;-78
2022/03/07 04:21:39;;;;;;;0.00;0.00;;;;;;;2.79;88.41;98830.94;4862124;29;20029;-79
2022/03/07 04:24:06;;;;;;;0.00;0.00;;;;;;;2.82;88.09;98827.81;4862569;29;20029;-81
2022/03/07 04:26:31;;;;;;;0.00;0.00;;;;;;;2.79;88.27;98828.28;4845548;29;20542;-79
2022/03/07 04:28:59;;;;;;;0.00;0.00;;;;;;;2.81;88.27;98829.66;4867209;29;20036;-78
2022/03/07 04:31:25;;;;;;;0.00;0.00;;;;;;;2.82;88.35;98830.44;4863072;29;20135;-77
2022/03/07 04:33:50;;;;;;;0.00;0.00;;;;;;;2.82;87.79;98823.34;4864072;29;20081;-77
2022/03/07 04:36:19;;;;;;;0.00;0.00;;;;;;;2.84;87.91;98826.53;4864825;29;20102;-77
2022/03/07 04:38:45;;;;;;;;;;;;;;;2.88;88.11;98821.59;4865470;29;20025;-77
2022/03/07 04:41:10;;;;;;;0.00;0.00;;;;;;;2.86;87.39;98827.13;4863079;29;19926;-77
2022/03/07 04:43:36;;;;;;;0.00;0.00;;;;;;;2.85;87.92;98816.81;4866249;29;20374;-80
2022/03/07 04:46:04;;;;;;;0.00;0.00;;;;;;;2.85;87.97;98822.09;4872389;29;20032;-79
2022/03/07 04:48:30;;;;;;;0.00;0.00;;;;;;;2.82;88.05;98818.06;4878530;29;20037;-79
2022/03/07 04:50:55;;;;;;;0.00;0.00;;;;;;;2.84;88.21;98823.09;4878543;29;20508;-77
2022/03/07 04:53:21;;;;;;;0.10;0.10;;;;;;;2.84;87.99;98826.53;4879348;29;20043;-77
2022/03/07 04:55:47;;;;;;;0.00;0.00;;;;;;;2.86;88.30;98832.41;4878489;29;20084;-77
2022/03/07 04:58:13;;;;;;;0.00;0.00;;;;;;;2.84;87.62;98826.53;4878828;29;20035;-79
2022/03/07 05:00:38;;;;;;;0.00;0.00;;;;;;;2.82;87.54;98825.16;4879599;29;20036;-80
2022/03/07 05:03:04;;;;;;;0.10;0.10;;;;;;;2.82;87.85;98833.09;4879638;29;20032;-80
2022/03/07 05:05:29;;;;;;;0.10;0.10;;;;;;;2.83;87.84;98824.97;4880584;29;20032;-80
2022/03/07 05:07:55;;;;;;;0.00;0.00;;;;;;;2.78;87.86;98826.69;4879414;29;20029;-78
2022/03/07 05:10:20;;;;;;;0.00;0.00;;;;;;;2.78;88.02;98838.03;4878850;29;20040;-78
2022/03/07 05:12:49;;;;;;;0.00;0.00;;;;;;;2.79;87.74;98830.94;4879931;29;20036;-78
2022/03/07 05:15:15;;;;;;;0.00;0.00;;;;;;;2.81;87.80;98839.44;4878551;29;20030;-77
2022/03/07 05:17:45;;;;;;;0.00;0.00;;;;;;;2.81;88.47;98826.22;4862486;29;20069;-77
2022/03/07 05:20:12;;;;;;;0.52;0.52;;;;;;;2.77;87.88;98833.81;4880570;29;20040;-77
2022/03/07 05:22:39;;;;;;;0.05;0.05;;;;;;;2.83;88.20;98835.53;4862828;29;20076;-78
2022/03/07 05:25:05;;;;;;;0.00;0.00;;;;;;;2.85;87.75;98835.28;4878270;29;20174;-78
2022/03/07 05:27:31;;;;;;;0.00;0.00;;;;;;;2.84;87.85;98831.03;4874220;29;20041;-79
2022/03/07 05:29:57;;;;;;;1.08;0.57;;;;;;;2.88;87.69;98838.28;4861858;29;20060;-79
2022/03/07 05:32:22;;;;;;;0.05;0.05;;;;;;;2.83;88.01;98840.00;4863454;29;20033;-80
2022/03/07 05:34:48;;;;;;;0.00;0.00;;;;;;;2.82;87.65;98833.91;4862354;29;20057;-79
2022/03/07 05:37:14;;;;;;;0.00;0.00;;;;;;;2.85;88.00;98837.94;4862467;29;20060;-79
2022/03/07 05:39:39;;;;;;;0.00;0.00;;;;;;;2.81;87.38;98832.31;4877664;29;20041;-80
2022/03/07 05:42:05;;;;;;;0.00;0.00;;;;;;;2.80;87.65;98833.34;4860563;29;20097;-79
2022/03/07 05:44:31;;;;;;;0.40;0.40;;;;;;;2.76;87.59;98823.44;4878860;29;20036;-78
2022/03/07 05:46:56;;;;;;;0.08;0.08;;;;;;;2.79;88.11;98828.28;4878988;29;20033;-77
2022/03/07 05:49:22;;;;;;;0.10;0.10;;;;;;;2.81;88.34;98839.44;4877682;29;20483;-78
2022/03/07 05:51:47;;;;;;;0.00;0.00;;;;;;;2.81;88.02;98823.59;4879704;29;20505;-75
2022/03/07 05:54:13;;;;;;;1.10;1.10;;;;;;;2.84;88.01;98834.47;4877965;29;20101;-78
2022/03/07 05:56:38;;;;;;;0.00;0.00;;;;;;;2.87;88.07;98830.59;4861482;29;20033;-78
2022/03/07 05:59:04;;;;;;;0.10;0.10;;;;;;;2.90;87.60;98830.09;4861160;29;20044;-80
2022/03/07 06:01:29;;;;;;;0.00;0.00;;;;;;;2.90;87.53;98827.47;4866326;29;20070;-79
2022/03/07 06:03:55;;;;;;;0.00;0.00;;;;;;;2.95;87.75;98830.22;4872805;29;20564;-79
2022/03/07 06:06:20;;;;;;;0.00;0.00;;;;;;;2.98;87.66;98828.94;4878961;29;20040;-79
2022/03/07 06:08:46;;;;;;;0.00;0.00;;;;;;;2.98;87.49;98832.41;4879307;29;20416;-79
2022/03/07 06:11:11;;;;;;;0.00;0.00;;;;;;;3.00;87.64;98835.63;4862073;29;20041;-80
2022/03/07 06:13:36;;;;;;;0.00;0.00;;;;;;;2.98;87.98;98827.13;4863912;29;20123;-79
2022/03/07 06:16:02;;;;;;;0.55;0.55;;;;;;;3.04;87.73;98828.06;4865181;29;20029;-79
2022/03/07 06:18:28;;;;;;;0.00;0.00;;;;;;;3.04;87.75;98828.84;4865152;29;20044;-79
2022/03/07 06:20:53;;;;;;;0.00;0.00;;;;;;;3.09;87.42;98833.44;4865988;29;20560;-79
2022/03/07 06:23:19;;;;;;;0.00;0.00;;;;;;;3.15;86.80;98843.06;4881308;29;20036;-79
2022/03/07 06:25:45;;;;;;;0.65;0.65;;;;;;;3.14;86.95;98841.47;4865198;29;20029;-79
2022/03/07 06:28:11;;;;;;;0.00;0.00;;;;;;;3.17;87.46;98845.47;4881939;29;20124;-79
2022/03/07 06:30:36;;;;;;;0.40;0.40;;;;;;;3.16;87.27;98849.16;4866149;29;20025;-79
2022/03/07 06:33:02;;;;;;;0.10;0.10;;;;;;;3.19;87.14;98843.41;4882850;29;20491;-79
2022/03/07 06:35:28;;;;;;;0.20;0.20;;;;;;;3.21;87.37;98849.28;4851092;29;20588;-80
2022/03/07 06:37:53;;;;;;;0.00;0.00;;;;;;;3.19;87.15;98840.78;4871986;29;20040;-77
2022/03/07 06:40:20;;;;;;;0.00;0.00;;;;;;;3.20;87.02;98842.38;4882113;29;20037;-79
2022/03/07 06:42:49;;;;;;;0.35;0.35;;;;;;;3.28;86.69;98831.44;4865848;29;20133;-79
2022/03/07 06:45:16;;;;;;;0.17;0.17;;;;;;;3.25;86.79;98842.47;4866331;29;20041;-79
2022/03/07 06:47:47;;;;;;;0.08;0.08;;;;;;;3.26;86.32;98844.09;4880833;29;20047;-80
2022/03/07 06:50:14;;;;;;;0.00;0.00;;;;;;;3.22;86.82;98836.84;4850422;29;20078;-80
2022/03/07 06:52:40;;;;;;;0.00;0.00;;;;;;;3.22;86.63;98840.28;4862782;29;20128;-80
2022/03/07 06:58:33;;;;;;;0.00;0.00;;;;;;;3.23;85.69;98835.81;4866348;29;20190;-80
2022/03/07 07:00:59;;;;;;;0.52;0.52;;;;;;;3.25;86.63;98839.03;4882176;29;21815;-80
2022/03/07 07:03:25;;;;;;;0.68;0.68;;;;;;;3.29;86.40;98834.91;4880728;29;20079;-80
2022/03/07 07:05:50;;;;;;;0.10;0.10;;;;;;;3.24;86.61;98837.44;4881238;29;20037;-79
2022/03/07 07:08:16;;;;;;;0.00;0.00;;;;;;;3.30;87.24;98832.00;4881553;29;20033;-79
2022/03/07 07:10:41;;;;;;;0.00;0.00;;;;;;;3.39;86.54;98832.44;4880886;29;20033;-78
2022/03/07 07:13:07;;;;;;;0.00;0.00;;;;;;;3.50;86.59;98849.31;4865621;29;20112;-78
2022/03/07 07:15:32;;;;;;;0.10;0.10;;;;;;;3.62;86.67;98836.84;4880561;29;20492;-78
2022/03/07 07:17:59;;;;;;;0.00;0.00;;;;;;;3.65;86.29;98846.16;4882054;29;20036;-79
2022/03/07 07:20:58;;;;;;;0.10;0.10;;;;;;;3.77;85.66;98849.59;4883141;29;20425;-81
2022/03/07 07:23:23;;;;;;;0.00;0.00;;;;;;;3.83;85.90;98853.13;4878332;29;20064;-79
2022/03/07 07:25:55;;;;;;;0.10;0.10;;;;;;;3.87;85.81;98845.50;5296866;23;20038;31
2022/03/07 07:28:21;;;;;;;0.00;0.00;;;;;;;3.91;85.98;98851.97;4874422;29;20170;-79
2022/03/07 07:30:47;;;;;;;0.00;0.00;;;;;;;3.91;85.93;98855.38;4857947;29;20117;-80
2022/03/07 07:33:26;;;;;;;0.00;0.00;;;;;;;3.97;85.46;98853.66;4861397;29;20034;-80
2022/03/07 07:35:52;;;;;;;0.00;0.00;;;;;;;3.98;85.59;98850.75;4866061;29;20042;-80
2022/03/07 07:45:05;;;;;;;0.00;0.00;;;;;;;4.30;84.64;98847.59;4877073;29;20449;-78
2022/03/07 07:47:31;;;;;;;0.00;0.00;;;;;;;4.40;84.79;98854.13;4877959;29;20062;-77
2022/03/07 07:49:56;;;;;;;0.00;0.00;;;;;;;4.51;84.68;98841.84;4892550;29;20033;-76
2022/03/07 07:52:37;;;;;;;0.85;0.85;;;;;;;4.55;84.44;98843.75;4892401;29;20036;-80
2022/03/07 07:57:35;;;;;;;0.00;0.00;;;;;;;4.55;83.95;98833.16;5181111;23;20064;-79
2022/03/07 08:00:00;;;;;;;0.88;0.88;;;;;;;4.70;82.90;98845.03;4905279;29;20039;-80
2022/03/07 08:02:26;;;;;;;0.17;0.17;;;;;;;4.71;82.64;98841.34;4884556;29;20119;-80
2022/03/07 08:04:54;;;;;;;0.08;0.08;;;;;;;4.73;82.53;98844.56;4880607;29;20036;-79
2022/03/07 08:09:54;;;;;;;0.00;0.00;;;;;;;4.73;82.33;98841.91;5167953;23;20136;-78
2022/03/07 08:12:20;;;;;;;0.00;0.00;;;;;;;4.74;82.46;98836.38;4934977;29;20035;-77
2022/03/07 08:14:45;;;;;;;0.00;0.00;;;;;;;4.79;82.64;98844.38;4900164;29;20484;-74
2022/03/07 08:17:12;;;;;;;0.00;0.00;;;;;;;4.79;81.30;98843.59;4932886;29;20036;-75
2022/03/07 08:19:38;;;;;;;0.00;0.00;;;;;;;4.80;81.98;98845.19;4912306;29;20031;-79
2022/03/07 08:22:04;;;;;;;0.30;0.30;;;;;;;4.86;82.16;98844.22;4900614;29;20556;-77
2022/03/07 08:24:29;;;;;;;0.00;0.00;;;;;;;4.94;82.44;98835.88;4885971;29;20119;-74
2022/03/07 08:26:54;;;;;;;0.00;0.00;;;;;;;4.94;82.15;98833.22;4915880;29;20099;-74
2022/03/07 08:29:20;;;;;;;0.25;0.25;;;;;;;4.99;82.27;98839.63;4916112;29;20064;-75
2022/03/07 08:31:45;;;;;;;0.00;0.00;;;;;;;5.05;82.11;98836.00;4915495;29;20032;-76
2022/03/07 08:34:11;;;;;;;0.00;0.00;;;;;;;5.09;81.92;98842.41;4902818;29;20296;-75
2022/03/07 08:36:36;;;;;;;0.00;0.00;;;;;;;5.13;80.69;98840.88;4896577;29;20041;-77
2022/03/07 08:39:02;;;;;;;0.00;0.00;;;;;;;5.19;80.54;98847.84;4913716;29;20046;-77
2022/03/07 08:41:28;;;;;;;0.57;0.57;;;;;;;5.09;79.85;98839.75;4896760;29;20036;-76
2022/03/07 08:43:55;;;;;;;0.00;0.00;;;;;;;5.06;79.71;98845.56;4915666;29;20032;-76
2022/03/07 08:46:20;;;;;;;0.00;0.00;;;;;;;5.08;80.63;98840.81;4915660;29;20096;-77
2022/03/07 08:48:46;;;;;;;0.08;0.08;;;;;;;5.16;79.90;98842.25;4895776;29;20032;-80
2022/03/07 08:51:11;;;;;;;0.25;0.25;;;;;;;5.19;79.95;98829.28;4900054;29;20050;-79
2022/03/07 08:56:06;;;;;;;0.57;0.57;;;;;;;5.27;79.28;98830.72;4903343;29;20052;-80
2022/03/07 08:58:52;;;;;;;0.20;0.20;;;;;;;5.27;78.88;98833.34;4880404;29;20501;-82
2022/03/07 09:01:20;;;;;;;6.82;1.05;;;;;;;5.37;80.11;98833.50;4843410;29;20049;-81
2022/03/07 09:04:40;;;;;;;0.30;0.30;;;;;;;5.45;79.08;98837.56;4876239;29;20108;-81
2022/03/07 09:07:07;;;;;;;0.00;0.00;;;;;;;5.51;79.21;98833.13;4871919;29;20048;-78
2022/03/07 09:09:40;;;;;;;0.00;0.00;;;;;;;5.60;79.02;98831.63;4904203;29;20039;-80
2022/03/07 09:12:09;;;;;;;0.00;0.00;;;;;;;5.69;78.95;98834.63;4881560;29;20119;-80
2022/03/07 09:14:35;;;;;;;;;;;;;;;5.62;75.18;98829.53;4897059;29;20119;-81
2022/03/07 09:17:00;;;;;;;0.25;0.25;;;;;;;5.52;77.27;98827.56;4899706;29;19946;-80
2022/03/07 09:19:35;;;;;;;0.00;0.00;;;;;;;5.58;77.88;98829.22;4904948;29;20139;-81
2022/03/07 09:22:03;;;;;;;0.10;0.10;;;;;;;5.67;78.35;98836.75;4887271;29;20047;-81
2022/03/07 09:24:30;;;;;;;1.08;1.08;;;;;;;5.73;78.25;98835.75;4885794;29;20018;-82
2022/03/07 09:27:34;;;;;;;0.10;0.10;;;;;;;5.70;75.83;98834.41;4898883;29;20025;-82
2022/03/07 09:30:37;;;;;;;0.05;0.05;;;;;;;5.68;77.80;98836.50;5817927;23;20274;-81
2022/03/07 09:33:38;;;;;;;0.10;0.10;;;;;;;5.69;77.66;98837.28;5005768;23;20041;31
2022/03/07 09:44:18;;;;;;;0.00;0.00;;;;;;;5.73;74.71;98835.75;5950431;23;20031;31
2022/03/07 09:51:06;;;;;;;0.10;0.10;;;;;;;5.86;75.31;98827.41;5279608;23;20071;-81
2022/03/07 10:07:09;;;;;;;0.00;0.00;;;;;;;5.79;74.26;98821.50;5082022;23;20071;-79
2022/03/07 10:13:01;;;;;;;0.55;0.55;;;;;;;5.97;73.73;98820.34;4958680;23;20075;-81
2022/03/07 10:46:01;;;;;;;0.00;0.00;;;;;;;6.61;69.78;98781.56;4920444;29;20123;-80
2022/03/07 10:49:05;;;;;;;0.10;0.10;;;;;;;6.73;70.36;98790.13;5040995;23;20315;31
2022/03/07 11:01:07;;;;;;;0.10;0.10;;;;;;;7.08;67.19;98785.28;4965793;23;20118;-79
2022/03/07 11:03:34;;;;;;;0.45;0.45;;;;;;;7.08;67.41;98779.97;4860855;29;20038;-79
2022/03/07 11:12:11;;;;;;;0.00;0.00;;;;;;;7.22;66.22;98777.63;4957673;23;20059;-78
2022/03/07 11:18:23;;;;;;;0.00;0.00;;;;;;;7.20;66.24;98775.22;5242917;23;20142;-81
2022/03/07 11:35:32;;;;;;;0.40;0.40;;;;;;;6.97;66.19;98749.88;5844618;23;20221;-80
2022/03/07 11:39:05;;;;;;;0.00;0.00;;;;;;;7.03;65.57;98748.84;5358015;23;21216;-82
2022/03/07 11:51:43;;;;;;;0.10;0.10;;;;;;;7.19;64.24;98720.44;4953697;23;20052;-79
2022/03/07 12:01:08;;;;;;;0.00;0.00;;;;;;;7.41;65.88;98722.09;5008105;23;20485;-81
2022/03/07 12:04:15;;;;;;;0.00;0.00;;;;;;;7.50;64.15;98719.72;4877700;29;20033;-80
2022/03/07 12:07:10;;;;;;;0.00;0.00;;;;;;;7.55;65.47;98718.94;4875877;29;20037;-80
2022/03/07 12:09:40;;;;;;;;;;;;;;;7.65;64.68;98721.59;4893096;29;20059;-79
2022/03/07 12:12:10;;;;;;;0.00;0.00;;;;;;;7.63;61.66;98718.38;4887197;29;19915;-79
2022/03/07 12:14:42;;;;;;;0.00;0.00;;;;;;;7.64;61.44;98709.34;4899758;29;20028;-82
2022/03/07 12:17:18;;;;;;;1.08;1.08;;;;;;;7.62;61.50;98709.63;4873323;29;20096;-80
2022/03/07 12:19:52;;;;;;;0.00;0.00;;;;;;;7.67;62.61;98709.63;4867356;29;20058;-79
2022/03/07 12:22:17;;;;;;;0.90;0.90;;;;;;;7.63;61.12;98702.41;4863030;29;20032;-79
2022/03/07 12:24:44;;;;;;;0.00;0.00;;;;;;;7.46;60.29;98705.34;4862202;29;20055;-79
2022/03/07 12:27:10;;;;;;;0.00;0.00;;;;;;;7.44;61.27;98713.56;4879475;29;20037;-79
2022/03/07 12:29:41;;;;;;;0.20;0.20;;;;;;;7.36;60.77;98698.94;4862367;29;20109;-79
2022/03/07 12:32:07;;;;;;;0.00;0.00;;;;;;;7.37;61.78;98702.38;4879376;29;20029;-79
2022/03/07 12:34:35;;;;;;;0.00;0.00;;;;;;;7.16;62.16;98697.00;4861737;29;20493;-79
2022/03/07 12:37:11;;;;;;;0.00;0.00;;;;;;;7.13;64.29;98692.22;4877848;29;20065;-79
2022/03/07 12:40:05;;;;;;;0.00;0.00;;;;;;;7.15;64.61;98695.44;4862169;29;20037;-79
2022/03/07 12:42:33;;;;;;;0.20;0.20;;;;;;;7.03;63.55;98689.53;4862565;29;20067;-79
2022/03/07 12:45:00;;;;;;;0.00;0.00;;;;;;;7.03;64.13;98695.66;4862428;29;20029;-79
2022/03/07 12:47:37;;;;;;;0.00;0.00;;;;;;;7.00;64.17;98695.38;4878765;29;20065;-78
2022/03/07 12:50:07;;;;;;;0.00;0.00;;;;;;;6.98;63.77;98698.31;4862355;29;20401;-78
2022/03/07 12:52:36;;;;;;;0.00;0.00;;;;;;;6.91;63.93;98695.09;4862684;29;20095;-80
2022/03/07 12:55:07;;;;;;;0.00;0.00;;;;;;;6.85;64.94;98694.25;4878737;29;20029;-78
2022/03/07 12:57:32;;;;;;;0.00;0.00;;;;;;;6.86;65.19;98692.38;4862319;29;20042;-79
2022/03/07 13:00:00;;;;;;;0.00;0.00;;;;;;;6.85;65.13;98696.13;4861644;29;20056;-79
2022/03/07 13:02:54;;;;;;;0.00;0.00;;;;;;;6.82;64.13;98686.81;4862248;29;20092;-80
2022/03/07 13:05:23;;;;;;;0.00;0.00;;;;;;;6.87;64.57;98694.00;4875985;29;20037;-80
2022/03/07 13:08:15;;;;;;;0.00;0.00;;;;;;;6.83;65.20;98688.41;4861609;29;20157;-80
2022/03/07 13:10:49;;;;;;;0.05;0.05;;;;;;;6.83;64.01;98691.06;4874901;29;20524;-80
2022/03/07 13:13:14;;;;;;;0.00;0.00;;;;;;;6.86;64.49;98685.22;4861744;29;20548;-80
2022/03/07 13:15:41;;;;;;;0.20;0.20;;;;;;;6.93;64.54;98671.69;4862113;29;20033;-80
2022/03/07 13:18:07;;;;;;;0.00;0.00;;;;;;;6.96;64.47;98681.03;4861506;29;20102;-80
2022/03/07 13:20:34;;;;;;;0.00;0.00;;;;;;;6.97;64.25;98672.78;4862122;29;20094;-79
2022/03/07 13:23:01;;;;;;;0.15;0.15;;;;;;;7.00;65.13;98679.44;4861231;29;20123;-78
2022/03/07 13:25:36;;;;;;;0.80;0.80;;;;;;;7.04;65.13;98676.00;4861594;29;20485;-78
2022/03/07 13:28:01;;;;;;;0.00;0.00;;;;;;;6.96;64.68;98668.50;4862199;29;20132;-79
2022/03/07 13:30:27;;;;;;;1.55;1.45;;;;;;;6.91;65.18;98667.69;4862003;29;20056;-79
2022/03/07 13:33:02;;;;;;;0.00;0.00;;;;;;;6.84;65.59;98668.72;4862161;29;20032;-78
2022/03/07 13:35:28;;;;;;;0.00;0.00;;;;;;;6.89;65.37;98666.09;4862215;29;20033;-79
2022/03/07 13:37:54;;;;;;;1.13;0.68;;;;;;;6.97;65.48;98672.78;4861450;29;20101;-78
2022/03/07 13:40:36;;;;;;;0.20;0.20;;;;;;;7.02;65.66;98682.63;4861579;29;20029;-78
2022/03/07 13:43:03;;;;;;;0.00;0.00;;;;;;;6.92;63.47;98669.28;4861603;29;20060;-80
2022/03/07 13:45:31;;;;;;;0.00;0.00;;;;;;;6.91;64.84;98667.69;4860826;29;20072;-78
2022/03/07 13:48:00;;;;;;;0.00;0.00;;;;;;;6.92;65.01;98677.28;4861385;29;20037;-78
2022/03/07 13:50:27;;;;;;;0.28;0.28;;;;;;;6.88;65.08;98658.38;4878636;29;20043;-78
2022/03/07 13:53:10;;;;;;;0.35;0.35;;;;;;;6.98;65.37;98674.38;4861212;29;20061;-78
2022/03/07 13:55:46;;;;;;;0.00;0.00;;;;;;;7.05;64.48;98672.28;4861879;29;20029;-78
2022/03/07 14:01:47;;;;;;;0.43;0.43;;;;;;;7.15;64.30;98660.06;5049710;23;20508;-80
2022/03/07 14:04:17;;;;;;;0.00;0.00;;;;;;;7.29;63.84;98677.09;4882629;29;20041;-78
2022/03/07 14:06:44;;;;;;;0.00;0.00;;;;;;;7.39;63.71;98668.34;4879248;29;20036;-78
2022/03/07 14:09:14;;;;;;;0.35;0.35;;;;;;;7.35;63.26;98668.06;4878814;29;20033;-78
2022/03/07 14:11:41;;;;;;;0.20;0.20;;;;;;;7.39;63.34;98665.69;4895023;29;20028;-78
2022/03/07 14:14:20;;;;;;;0.00;0.00;;;;;;;7.48;63.18;98672.09;4878767;29;20052;-78
2022/03/07 14:16:46;;;;;;;0.00;0.00;;;;;;;7.44;63.49;98660.38;4896992;29;20040;-78
2022/03/07 14:19:12;;;;;;;0.00;0.00;;;;;;;7.53;64.13;98664.09;4896902;29;20035;-78
2022/03/07 14:21:38;;;;;;;0.00;0.00;;;;;;;7.49;63.98;98662.25;4879995;29;20416;-81
2022/03/07 14:24:04;;;;;;;0.00;0.00;;;;;;;7.48;63.46;98665.97;4879545;29;20024;-81
2022/03/07 14:26:31;;;;;;;0.00;0.00;;;;;;;7.45;63.24;98669.94;4889411;29;20409;-81
2022/03/07 14:29:03;;;;;;;0.00;0.00;;;;;;;7.47;63.59;98669.69;4860654;29;20094;-80